Marchicora — V2OQ7 — position and weather

sailwx.info

Track history (hours):
 
Tides and Currents Weather Stations Pressure Air Temp Water Temp Dewpoint Dewpoint Depression Visibility Wind Speed Wind Dir Waves Ship Positions

Marchicora

Last reported at 2017-Apr-21 07:25 UTC. Time now 2017-Apr-28 14:13 UTC.
Position N 60°25' E 019°02'.

Length 153 m; draft 9.8 m.

Type: Cargo ship. MMSI: 304653000.

Date/timePositionNaut miles runAvg speedWind from/ knotsBaromVisibWave heightAir tempDewpointWater temp
2017-Apr-21 07:25N 60°25' E 019°02'612.7
2017-Apr-21 06:58N 60°19' E 019°01'612.5
2017-Apr-21 06:30N 60°14' E 019°04'612.5
2017-Apr-21 06:01N 60°09' E 019°11'612.3
2017-Apr-21 05:30N 60°04' E 019°19'612.0
2017-Apr-21 05:00N 59°59' E 019°26'611.8
2017-Apr-21 04:31N 59°55' E 019°34'611.9
2017-Apr-21 04:01N 59°50' E 019°41'612.3
2017-Apr-21 03:30N 59°45' E 019°50'271 9.1
2017-Apr-19 21:36N 55°46' E 015°50'112.8
2017-Apr-19 21:30N 55°45' E 015°48'612.8
2017-Apr-19 21:00N 55°42' E 015°38'812.7
2017-Apr-19 20:23N 55°39' E 015°26'513.1
2017-Apr-19 20:00N 55°36' E 015°18'612.8
2017-Apr-19 19:30N 55°33' E 015°09'612.8
2017-Apr-19 19:00N 55°30' E 014°59'612.8
2017-Apr-19 18:30N 55°27' E 014°49'712.9
2017-Apr-19 18:00N 55°23' E 014°39'612.9
2017-Apr-19 17:30N 55°18' E 014°32'613.0
2017-Apr-19 17:00N 55°13' E 014°25'713.1
2017-Apr-19 16:30N 55°08' E 014°18'612.7
2017-Apr-19 16:00N 55°03' E 014°11'612.1
2017-Apr-19 15:30N 54°60' E 014°03'612.1
2017-Apr-19 14:59N 54°58' E 013°52'612.3
2017-Apr-19 14:30N 54°56' E 013°42'3112.5
2017-Apr-19 12:01N 54°46' E 012°52'012.2
2017-Apr-19 12:01N 54°46' E 012°51'611.8
2017-Apr-19 11:31N 54°44' E 012°42'612.1
2017-Apr-19 11:00N 54°40' E 012°33'611.7
2017-Apr-19 10:31N 54°37' E 012°25'2111.2
2017-Apr-19 08:36N 54°19' E 012°05'210.0
2017-Apr-19 08:21N 54°17' E 012°03'7 8.0
2017-Apr-19 07:29N 54°10' E 012°06'1 0.2
2017-Apr-19 03:16N 54°09' E 012°06'0 0.0
2017-Apr-19 02:58N 54°09' E 012°06'0 0.0
2017-Apr-19 02:28N 54°09' E 012°06'0 0.0
2017-Apr-19 01:16N 54°09' E 012°06'0 0.0
2017-Apr-19 00:58N 54°09' E 012°06'0 0.0
2017-Apr-19 00:28N 54°09' E 012°06'0 0.0
2017-Apr-18 22:16N 54°09' E 012°06'0 0.0
2017-Apr-18 21:58N 54°09' E 012°06'0 0.0
2017-Apr-18 06:07N 54°09' E 012°06'0 0.0
2017-Apr-18 05:46N 54°09' E 012°06'0 0.0
2017-Apr-18 05:25N 54°09' E 012°06'0 0.0
2017-Apr-18 02:01N 54°09' E 012°06'0 0.0
2017-Apr-18 01:58N 54°09' E 012°06'0 0.0
2017-Apr-17 19:45N 54°09' E 012°06'0 0.0
2017-Apr-17 19:30N 54°09' E 012°06'0 0.0
2017-Apr-17 10:07N 54°09' E 012°06'0 0.0
2017-Apr-17 08:03N 54°09' E 012°06'0 0.0
2017-Apr-17 07:10N 54°09' E 012°06'0 0.0
2017-Apr-17 06:34N 54°09' E 012°06'0 0.0
2017-Apr-17 06:21N 54°09' E 012°06'0 0.5
2017-Apr-17 06:00N 54°09' E 012°06'2 3.9
2017-Apr-17 05:30N 54°11' E 012°05'4 9.1
2017-Apr-17 05:00N 54°15' E 012°01'4 7.3
2017-Apr-17 04:28N 54°18' E 011°57'14 8.7
2017-Apr-17 02:49N 54°27' E 011°38'411.9
2017-Apr-17 02:28N 54°29' E 011°31'512.0
2017-Apr-17 02:00N 54°32' E 011°23'612.0
2017-Apr-17 01:30N 54°34' E 011°14'612.2
2017-Apr-17 01:00N 54°37' E 011°04'611.9
2017-Apr-17 00:30N 54°40' E 010°56'510.3
2017-Apr-17 00:00N 54°45' E 010°51'611.1
2017-Apr-16 23:30N 54°50' E 010°52'510.5
2017-Apr-16 23:00N 54°55' E 010°54'510.9
2017-Apr-16 22:30N 54°59' E 011°01'611.4
2017-Apr-16 22:00N 55°05' E 011°02'510.8
2017-Apr-16 21:30N 55°10' E 011°03'52 9.9
2017-Apr-16 16:13N 56°03' E 011°04'211.5
2017-Apr-16 16:00N 56°05' E 011°06'6910.9
2017-Apr-16 09:43N 57°12' E 011°34'312.4
2017-Apr-16 09:30N 57°14' E 011°33'612.5
2017-Apr-16 09:00N 57°20' E 011°29'712.4
2017-Apr-16 08:28N 57°26' E 011°25'612.1
2017-Apr-16 08:00N 57°31' E 011°18'612.3
2017-Apr-16 07:30N 57°35' E 011°09'612.2
2017-Apr-16 07:00N 57°39' E 011°01'712.6
2017-Apr-16 06:28N 57°43' E 010°52'612.5
2017-Apr-16 06:00N 57°47' E 010°44'713.6
2017-Apr-16 05:29N 57°48' E 010°30'713.9
2017-Apr-16 05:01N 57°48' E 010°18'204 5.2
2017-Apr-14 13:53N 55°19' E 006°04'0 0.1
2017-Apr-14 13:29N 55°19' E 006°04'5 9.1
2017-Apr-14 12:59N 55°15' E 005°60'612.4
2017-Apr-14 12:29N 55°10' E 005°54'612.5
2017-Apr-14 11:59N 55°05' E 005°48'612.5
2017-Apr-14 11:30N 54°60' E 005°43'612.5
2017-Apr-14 10:59N 54°54' E 005°37'612.5
2017-Apr-14 10:29N 54°49' E 005°31'612.6
2017-Apr-14 09:58N 54°43' E 005°26'612.6
2017-Apr-14 09:30N 54°38' E 005°20'612.7
2017-Apr-14 09:00N 54°33' E 005°14'612.7
2017-Apr-14 08:30N 54°28' E 005°08'612.6
2017-Apr-14 07:59N 54°22' E 005°03'612.6
2017-Apr-14 07:29N 54°17' E 004°57'612.6
2017-Apr-14 07:00N 54°12' E 004°51'612.7
2017-Apr-14 06:30N 54°07' E 004°44'612.4
2017-Apr-14 05:59N 54°01' E 004°39'612.4
2017-Apr-14 05:29N 53°56' E 004°35'612.3
2017-Apr-14 04:59N 53°51' E 004°29'612.2
2017-Apr-14 04:29N 53°46' E 004°22'612.1
2017-Apr-14 03:59N 53°43' E 004°13'712.0
2017-Apr-14 03:23N 53°38' E 004°04'4311.4
2017-Apr-13 23:39N 53°02' E 003°26'211.2
2017-Apr-13 23:30N 53°01' E 003°24'611.2
2017-Apr-13 23:00N 52°56' E 003°21'711.0
2017-Apr-13 22:25N 52°49' E 003°18'511.0
2017-Apr-13 22:00N 52°45' E 003°17'611.0
2017-Apr-13 21:26N 52°39' E 003°15'6712.4
2017-Apr-13 16:02N 51°39' E 002°26'014.3
2017-Apr-13 16:00N 51°39' E 002°26'714.4
2017-Apr-13 15:30N 51°33' E 002°19'714.4
2017-Apr-13 15:01N 51°27' E 002°13'1414.4
2017-Apr-13 14:01N 51°13' E 002°04'815.0
2017-Apr-13 13:31N 51°10' E 001°53'815.3
2017-Apr-13 13:00N 51°05' E 001°43'815.2
2017-Apr-13 12:31N 51°00' E 001°35'714.8
2017-Apr-13 12:01N 50°54' E 001°28'5812.6
2017-Apr-13 07:23N 50°22' E 000°12'512.3
2017-Apr-13 07:00N 50°20' E 000°05'612.0
2017-Apr-13 06:30N 50°19' W 000°04'611.6
2017-Apr-13 06:00N 50°17' W 000°13'611.3
2017-Apr-13 05:30N 50°16' W 000°22'510.8
2017-Apr-13 05:00N 50°14' W 000°30'510.5
2017-Apr-13 04:30N 50°13' W 000°38'610.1
2017-Apr-13 03:55N 50°11' W 000°47'16 9.5
2017-Apr-13 02:11N 50°07' W 001°11'4 9.9
2017-Apr-13 01:49N 50°06' W 001°17'310.1
2017-Apr-13 01:30N 50°05' W 001°22'510.8
2017-Apr-13 01:00N 50°04' W 001°30'811.7
2017-Apr-13 00:18N 50°02' W 001°42'4714.1
2017-Apr-12 20:58N 49°49' W 002°53'714.6
2017-Apr-12 20:29N 49°46' W 003°02'714.5
2017-Apr-12 20:00N 49°42' W 003°12'714.4
2017-Apr-12 19:30N 49°39' W 003°21'1014.4
2017-Apr-12 18:51N 49°34' W 003°34'614.4
2017-Apr-12 18:28N 49°31' W 003°41'814.5
2017-Apr-12 17:55N 49°27' W 003°52'714.5
2017-Apr-12 17:25N 49°24' W 004°02'1014.4
2017-Apr-12 16:43N 49°19' W 004°15'314.3
2017-Apr-12 16:29N 49°17' W 004°20'714.2
2017-Apr-12 16:00N 49°14' W 004°29'813.9
2017-Apr-12 15:24N 49°09' W 004°39'913.7
2017-Apr-12 14:46N 49°05' W 004°51'413.4
2017-Apr-12 14:30N 49°03' W 004°55'1313.1
2017-Apr-12 13:30N 48°56' W 005°12'812.4
2017-Apr-12 12:53N 48°53' W 005°23'512.0
2017-Apr-12 12:30N 48°50' W 005°29'611.7
2017-Apr-12 11:58N 48°47' W 005°37'511.2
2017-Apr-12 11:30N 48°43' W 005°42'611.2
2017-Apr-12 11:00N 48°38' W 005°45'910.9
2017-Apr-12 10:10N 48°30' W 005°51'210.8
2017-Apr-12 09:57N 48°27' W 005°53'810.8
2017-Apr-12 09:10N 48°20' W 005°58'411.1
2017-Apr-12 08:49N 48°16' W 006°01'611.2
2017-Apr-12 08:18N 48°11' W 006°05'511.2
2017-Apr-12 07:51N 48°07' W 006°08'511.4
2017-Apr-12 07:26N 48°03' W 006°11'811.6
2017-Apr-12 06:46N 47°56' W 006°17'  
Track history (hours):
 
Tides and Currents Weather Stations Pressure Air Temp Water Temp Dewpoint Dewpoint Depression Visibility Wind Speed Wind Dir Waves Ship Positions

Marchicora

Last reported at 2017-Apr-21 07:25 UTC. Time now 2017-Apr-28 14:13 UTC.
Position N 60°25' E 019°02'.

Length 153 m; draft 9.8 m.

Type: Cargo ship. MMSI: 304653000.

Date/timePositionNaut miles runAvg speedWind from/ knotsBaromVisibWave heightAir tempDewpointWater temp
2017-Apr-21 07:25N 60°25' E 019°02'612.7
2017-Apr-21 06:58N 60°19' E 019°01'612.5
2017-Apr-21 06:30N 60°14' E 019°04'612.5
2017-Apr-21 06:01N 60°09' E 019°11'612.3
2017-Apr-21 05:30N 60°04' E 019°19'612.0
2017-Apr-21 05:00N 59°59' E 019°26'611.8
2017-Apr-21 04:31N 59°55' E 019°34'611.9
2017-Apr-21 04:01N 59°50' E 019°41'612.3
2017-Apr-21 03:30N 59°45' E 019°50'271 9.1
2017-Apr-19 21:36N 55°46' E 015°50'112.8
2017-Apr-19 21:30N 55°45' E 015°48'612.8
2017-Apr-19 21:00N 55°42' E 015°38'812.7
2017-Apr-19 20:23N 55°39' E 015°26'513.1
2017-Apr-19 20:00N 55°36' E 015°18'612.8
2017-Apr-19 19:30N 55°33' E 015°09'612.8
2017-Apr-19 19:00N 55°30' E 014°59'612.8
2017-Apr-19 18:30N 55°27' E 014°49'712.9
2017-Apr-19 18:00N 55°23' E 014°39'612.9
2017-Apr-19 17:30N 55°18' E 014°32'613.0
2017-Apr-19 17:00N 55°13' E 014°25'713.1
2017-Apr-19 16:30N 55°08' E 014°18'612.7
2017-Apr-19 16:00N 55°03' E 014°11'612.1
2017-Apr-19 15:30N 54°60' E 014°03'612.1
2017-Apr-19 14:59N 54°58' E 013°52'612.3
2017-Apr-19 14:30N 54°56' E 013°42'3112.5
2017-Apr-19 12:01N 54°46' E 012°52'012.2
2017-Apr-19 12:01N 54°46' E 012°51'611.8
2017-Apr-19 11:31N 54°44' E 012°42'612.1
2017-Apr-19 11:00N 54°40' E 012°33'611.7
2017-Apr-19 10:31N 54°37' E 012°25'2111.2
2017-Apr-19 08:36N 54°19' E 012°05'210.0
2017-Apr-19 08:21N 54°17' E 012°03'7 8.0
2017-Apr-19 07:29N 54°10' E 012°06'1 0.2
2017-Apr-19 03:16N 54°09' E 012°06'0 0.0
2017-Apr-19 02:58N 54°09' E 012°06'0 0.0
2017-Apr-19 02:28N 54°09' E 012°06'0 0.0
2017-Apr-19 01:16N 54°09' E 012°06'0 0.0
2017-Apr-19 00:58N 54°09' E 012°06'0 0.0
2017-Apr-19 00:28N 54°09' E 012°06'0 0.0
2017-Apr-18 22:16N 54°09' E 012°06'0 0.0
2017-Apr-18 21:58N 54°09' E 012°06'0 0.0
2017-Apr-18 06:07N 54°09' E 012°06'0 0.0
2017-Apr-18 05:46N 54°09' E 012°06'0 0.0
2017-Apr-18 05:25N 54°09' E 012°06'0 0.0
2017-Apr-18 02:01N 54°09' E 012°06'0 0.0
2017-Apr-18 01:58N 54°09' E 012°06'0 0.0
2017-Apr-17 19:45N 54°09' E 012°06'0 0.0
2017-Apr-17 19:30N 54°09' E 012°06'0 0.0
2017-Apr-17 10:07N 54°09' E 012°06'0 0.0
2017-Apr-17 08:03N 54°09' E 012°06'0 0.0
2017-Apr-17 07:10N 54°09' E 012°06'0 0.0
2017-Apr-17 06:34N 54°09' E 012°06'0 0.0
2017-Apr-17 06:21N 54°09' E 012°06'0 0.5
2017-Apr-17 06:00N 54°09' E 012°06'2 3.9
2017-Apr-17 05:30N 54°11' E 012°05'4 9.1
2017-Apr-17 05:00N 54°15' E 012°01'4 7.3
2017-Apr-17 04:28N 54°18' E 011°57'14 8.7
2017-Apr-17 02:49N 54°27' E 011°38'411.9
2017-Apr-17 02:28N 54°29' E 011°31'512.0
2017-Apr-17 02:00N 54°32' E 011°23'612.0
2017-Apr-17 01:30N 54°34' E 011°14'612.2
2017-Apr-17 01:00N 54°37' E 011°04'611.9
2017-Apr-17 00:30N 54°40' E 010°56'510.3
2017-Apr-17 00:00N 54°45' E 010°51'611.1
2017-Apr-16 23:30N 54°50' E 010°52'510.5
2017-Apr-16 23:00N 54°55' E 010°54'510.9
2017-Apr-16 22:30N 54°59' E 011°01'611.4
2017-Apr-16 22:00N 55°05' E 011°02'510.8
2017-Apr-16 21:30N 55°10' E 011°03'52 9.9
2017-Apr-16 16:13N 56°03' E 011°04'211.5
2017-Apr-16 16:00N 56°05' E 011°06'6910.9
2017-Apr-16 09:43N 57°12' E 011°34'312.4
2017-Apr-16 09:30N 57°14' E 011°33'612.5
2017-Apr-16 09:00N 57°20' E 011°29'712.4
2017-Apr-16 08:28N 57°26' E 011°25'612.1
2017-Apr-16 08:00N 57°31' E 011°18'612.3
2017-Apr-16 07:30N 57°35' E 011°09'612.2
2017-Apr-16 07:00N 57°39' E 011°01'712.6
2017-Apr-16 06:28N 57°43' E 010°52'612.5
2017-Apr-16 06:00N 57°47' E 010°44'713.6
2017-Apr-16 05:29N 57°48' E 010°30'713.9
2017-Apr-16 05:01N 57°48' E 010°18'204 5.2
2017-Apr-14 13:53N 55°19' E 006°04'0 0.1
2017-Apr-14 13:29N 55°19' E 006°04'5 9.1
2017-Apr-14 12:59N 55°15' E 005°60'612.4
2017-Apr-14 12:29N 55°10' E 005°54'612.5
2017-Apr-14 11:59N 55°05' E 005°48'612.5
2017-Apr-14 11:30N 54°60' E 005°43'612.5
2017-Apr-14 10:59N 54°54' E 005°37'612.5
2017-Apr-14 10:29N 54°49' E 005°31'612.6
2017-Apr-14 09:58N 54°43' E 005°26'612.6
2017-Apr-14 09:30N 54°38' E 005°20'612.7
2017-Apr-14 09:00N 54°33' E 005°14'612.7
2017-Apr-14 08:30N 54°28' E 005°08'612.6
2017-Apr-14 07:59N 54°22' E 005°03'612.6
2017-Apr-14 07:29N 54°17' E 004°57'612.6
2017-Apr-14 07:00N 54°12' E 004°51'612.7
2017-Apr-14 06:30N 54°07' E 004°44'612.4
2017-Apr-14 05:59N 54°01' E 004°39'612.4
2017-Apr-14 05:29N 53°56' E 004°35'612.3
2017-Apr-14 04:59N 53°51' E 004°29'612.2
2017-Apr-14 04:29N 53°46' E 004°22'612.1
2017-Apr-14 03:59N 53°43' E 004°13'712.0
2017-Apr-14 03:23N 53°38' E 004°04'4311.4
2017-Apr-13 23:39N 53°02' E 003°26'211.2
2017-Apr-13 23:30N 53°01' E 003°24'611.2
2017-Apr-13 23:00N 52°56' E 003°21'711.0
2017-Apr-13 22:25N 52°49' E 003°18'511.0
2017-Apr-13 22:00N 52°45' E 003°17'611.0
2017-Apr-13 21:26N 52°39' E 003°15'6712.4
2017-Apr-13 16:02N 51°39' E 002°26'014.3
2017-Apr-13 16:00N 51°39' E 002°26'714.4
2017-Apr-13 15:30N 51°33' E 002°19'714.4
2017-Apr-13 15:01N 51°27' E 002°13'1414.4
2017-Apr-13 14:01N 51°13' E 002°04'815.0
2017-Apr-13 13:31N 51°10' E 001°53'815.3
2017-Apr-13 13:00N 51°05' E 001°43'815.2
2017-Apr-13 12:31N 51°00' E 001°35'714.8
2017-Apr-13 12:01N 50°54' E 001°28'5812.6
2017-Apr-13 07:23N 50°22' E 000°12'512.3
2017-Apr-13 07:00N 50°20' E 000°05'612.0
2017-Apr-13 06:30N 50°19' W 000°04'611.6
2017-Apr-13 06:00N 50°17' W 000°13'611.3
2017-Apr-13 05:30N 50°16' W 000°22'510.8
2017-Apr-13 05:00N 50°14' W 000°30'510.5
2017-Apr-13 04:30N 50°13' W 000°38'610.1
2017-Apr-13 03:55N 50°11' W 000°47'16 9.5
2017-Apr-13 02:11N 50°07' W 001°11'4 9.9
2017-Apr-13 01:49N 50°06' W 001°17'310.1
2017-Apr-13 01:30N 50°05' W 001°22'510.8
2017-Apr-13 01:00N 50°04' W 001°30'811.7
2017-Apr-13 00:18N 50°02' W 001°42'4714.1
2017-Apr-12 20:58N 49°49' W 002°53'714.6
2017-Apr-12 20:29N 49°46' W 003°02'714.5
2017-Apr-12 20:00N 49°42' W 003°12'714.4
2017-Apr-12 19:30N 49°39' W 003°21'1014.4
2017-Apr-12 18:51N 49°34' W 003°34'614.4
2017-Apr-12 18:28N 49°31' W 003°41'814.5
2017-Apr-12 17:55N 49°27' W 003°52'714.5
2017-Apr-12 17:25N 49°24' W 004°02'1014.4
2017-Apr-12 16:43N 49°19' W 004°15'314.3
2017-Apr-12 16:29N 49°17' W 004°20'714.2
2017-Apr-12 16:00N 49°14' W 004°29'813.9
2017-Apr-12 15:24N 49°09' W 004°39'913.7
2017-Apr-12 14:46N 49°05' W 004°51'413.4
2017-Apr-12 14:30N 49°03' W 004°55'1313.1
2017-Apr-12 13:30N 48°56' W 005°12'812.4
2017-Apr-12 12:53N 48°53' W 005°23'512.0
2017-Apr-12 12:30N 48°50' W 005°29'611.7
2017-Apr-12 11:58N 48°47' W 005°37'511.2
2017-Apr-12 11:30N 48°43' W 005°42'611.2
2017-Apr-12 11:00N 48°38' W 005°45'910.9
2017-Apr-12 10:10N 48°30' W 005°51'210.8
2017-Apr-12 09:57N 48°27' W 005°53'810.8
2017-Apr-12 09:10N 48°20' W 005°58'411.1
2017-Apr-12 08:49N 48°16' W 006°01'611.2
2017-Apr-12 08:18N 48°11' W 006°05'511.2
2017-Apr-12 07:51N 48°07' W 006°08'511.4
2017-Apr-12 07:26N 48°03' W 006°11'811.6
2017-Apr-12 06:46N 47°56' W 006°17'  

Dump ship's entire track history